Terminal Aerodrome Forecast
Issued by NWS Wilmington, OH

Current Version | Previous Version | Text Only | Print | Product List | Glossary Off
Versions: 1 2 3 4 5 6 7 8 9 10 11 12 13 14 15 16 17 18 19 20 21 22 23

000
FTUS41 KILN 310900 AAB
TAFDAY
TAF AMD
KDAY 310929Z 3109/0106 21007KT P6SM -SHRA VCTS SCT015 OVC040CB
      TEMPO 3109/3112 2SM SHRA BR BKN007
     FM311200 20007KT 2SM -SHRA BR OVC007
     FM311600 21008KT 5SM HZ VCTS OVC015CB
     FM311900 21009KT P6SM VCTS BKN025CB
     FM010100 20007KT P6SM BKN035=

USA.gov is the U.S. government's official web portal to all federal, state and local government web resources and services.